Terminal Aerodrome Forecast
Issued by NWS Flagstaff, AZ

Home | Current Version | Previous Version | Text Only | Print | Product List | Glossary On
Versions: 1 2 3 4 5 6 7 8 9 10 11 12 13 14 15 16 17 18 19 20 21
595
FTUS45 KFGZ 250540
TAFFLG
TAF
KFLG 250540Z 2506/2606 VRB04KT P6SM FEW250
     FM251800 22014G22KT P6SM BKN040 BKN100 PROB30 2519/2601 5SM
      -SHRA BKN030
     FM260200 VRB05KT P6SM SCT035=

USA.gov is the U.S. government's official web portal to all federal, state and local government web resources and services.